createdAt,value
2018-02-03T00:00:19.811Z,9.90
2018-02-03T00:02:45.965Z,8.13
2018-02-03T00:05:12.191Z,7.57
2018-02-03T00:07:38.362Z,13.37
2018-02-03T00:10:04.551Z,8.97
2018-02-03T00:12:30.767Z,11.57
2018-02-03T00:14:56.916Z,9.73
2018-02-03T00:17:23.040Z,16.00
2018-02-03T00:19:49.202Z,10.47
2018-02-03T00:22:16.078Z,13.00
2018-02-03T00:24:42.241Z,11.97
2018-02-03T00:27:08.412Z,10.10
2018-02-03T00:29:35.331Z,13.63
2018-02-03T00:32:02.244Z,14.40
2018-02-03T00:34:28.407Z,11.47
2018-02-03T00:36:54.572Z,11.33
2018-02-03T00:39:20.747Z,9.17
2018-02-03T00:41:46.945Z,17.90
2018-02-03T00:44:13.190Z,11.47
2018-02-03T00:46:39.310Z,17.73
2018-02-03T00:49:05.512Z,15.77
2018-02-03T00:51:31.712Z,10.20
2018-02-03T00:53:58.779Z,11.00
2018-02-03T00:56:24.936Z,17.67
2018-02-03T00:58:51.130Z,12.83
2018-02-03T01:01:17.289Z,11.23
2018-02-03T01:03:43.470Z,12.53
2018-02-03T01:06:10.371Z,11.10
2018-02-03T01:08:36.486Z,13.10
2018-02-03T01:11:02.750Z,10.83
2018-02-03T01:13:28.930Z,12.13
2018-02-03T01:15:55.130Z,11.37
2018-02-03T01:18:22.047Z,10.87
2018-02-03T01:20:48.180Z,9.60
2018-02-03T01:23:15.085Z,8.13
2018-02-03T01:25:41.234Z,8.93
2018-02-03T01:28:07.428Z,14.57
2018-02-03T01:30:33.653Z,10.83
2018-02-03T01:32:59.817Z,10.37
2018-02-03T01:35:26.048Z,11.47
2018-02-03T01:37:52.907Z,21.27
2018-02-03T01:40:19.113Z,8.60
2018-02-03T01:42:45.250Z,9.17
2018-02-03T01:45:12.206Z,10.40
2018-02-03T01:47:50.256Z,16.30
2018-02-03T01:50:16.390Z,9.67
2018-02-03T01:52:42.626Z,11.17
2018-02-03T01:55:08.840Z,13.27
2018-02-03T01:57:35.018Z,11.10
2018-02-03T02:00:01.191Z,10.73
2018-02-03T02:02:27.348Z,16.13
2018-02-03T02:04:53.559Z,8.87
2018-02-03T02:07:19.718Z,10.60
2018-02-03T02:09:45.867Z,9.03
2018-02-03T02:12:12.817Z,10.10
2018-02-03T02:14:39.702Z,10.60
2018-02-03T02:17:05.919Z,9.93
2018-02-03T02:19:32.049Z,9.60
2018-02-03T02:21:58.189Z,8.83
2018-02-03T02:24:24.390Z,9.97
2018-02-03T02:26:50.525Z,10.20
2018-02-03T02:29:16.660Z,8.80
2018-02-03T02:31:42.816Z,8.37
2018-02-03T02:34:08.951Z,8.00
2018-02-03T02:36:35.883Z,11.90
2018-02-03T02:39:02.090Z,10.13
2018-02-03T02:41:28.236Z,8.90
2018-02-03T02:43:54.414Z,9.23
2018-02-03T02:46:20.535Z,9.23
2018-02-03T02:48:46.677Z,10.00
2018-02-03T02:51:12.878Z,11.67
2018-02-03T02:53:39.761Z,9.13
2018-02-03T02:56:05.977Z,11.10
2018-02-03T02:58:32.107Z,9.30
2018-02-03T03:00:58.289Z,11.30
2018-02-03T03:03:25.222Z,9.83
2018-02-03T03:05:52.223Z,10.50
2018-02-03T03:08:18.424Z,10.67
2018-02-03T03:10:45.309Z,12.33
2018-02-03T03:13:11.487Z,14.80
2018-02-03T03:15:38.424Z,12.00
2018-02-03T03:18:05.322Z,14.73
2018-02-03T03:20:31.456Z,10.93
2018-02-03T03:22:57.634Z,10.40
2018-02-03T03:25:24.532Z,14.40
2018-02-03T03:27:50.675Z,13.17
2018-02-03T03:30:16.851Z,13.90
2018-02-03T03:32:43.013Z,17.87
2018-02-03T03:35:09.191Z,12.90
2018-02-03T03:37:36.118Z,11.07
2018-02-03T03:40:03.149Z,13.30
2018-02-03T03:42:30.042Z,13.03
2018-02-03T03:44:56.195Z,11.33
2018-02-03T03:47:22.466Z,13.50
2018-02-03T03:49:49.400Z,10.63
2018-02-03T03:52:16.387Z,20.60
2018-02-03T03:54:42.536Z,12.00
2018-02-03T03:57:08.689Z,15.40
2018-02-03T03:59:34.870Z,16.43
2018-02-03T04:02:01.030Z,18.23
2018-02-03T04:04:27.253Z,18.00
2018-02-03T04:06:53.383Z,13.33
2018-02-03T04:09:19.526Z,11.23
2018-02-03T04:11:45.672Z,13.10
2018-02-03T04:14:12.567Z,13.90
2018-02-03T04:16:38.806Z,16.70
2018-02-03T04:19:05.033Z,12.63
2018-02-03T04:21:31.310Z,16.60
2018-02-03T04:23:58.285Z,12.57
2018-02-03T04:26:24.479Z,16.80
2018-02-03T04:28:51.483Z,13.33
2018-02-03T04:31:17.703Z,16.93
2018-02-03T04:33:43.943Z,17.43
2018-02-03T04:36:10.123Z,14.90
2018-02-03T04:38:37.006Z,20.53
2018-02-03T04:41:03.203Z,12.57
2018-02-03T04:43:29.375Z,16.87
2018-02-03T04:45:55.514Z,15.90
2018-02-03T04:48:22.417Z,13.70
2018-02-03T04:50:48.540Z,14.93
2018-02-03T04:53:14.699Z,16.37
2018-02-03T04:55:40.836Z,13.97
2018-02-03T04:58:06.946Z,14.53
2018-02-03T05:00:33.087Z,15.07
2018-02-03T05:02:59.978Z,14.33
2018-02-03T05:05:26.221Z,16.50
2018-02-03T05:07:52.384Z,15.10
2018-02-03T05:10:19.278Z,17.57
2018-02-03T05:12:45.504Z,18.00
2018-02-03T05:15:11.679Z,16.23
2018-02-03T05:17:38.565Z,16.10
2018-02-03T05:20:05.485Z,14.50
2018-02-03T05:22:32.371Z,12.43
2018-02-03T05:24:58.546Z,18.23
2018-02-03T05:27:25.438Z,16.30
2018-02-03T05:29:51.568Z,14.97
2018-02-03T05:32:17.727Z,47.07
2018-02-03T05:34:43.896Z,17.77
2018-02-03T05:37:10.778Z,20.20
2018-02-03T05:39:36.951Z,19.83
2018-02-03T05:42:03.112Z,16.43
2018-02-03T05:44:32.317Z,17.83
2018-02-03T05:46:58.460Z,14.43
2018-02-03T05:49:24.610Z,16.93
2018-02-03T05:51:50.785Z,16.80
2018-02-03T05:54:16.906Z,17.77
2018-02-03T05:56:43.855Z,15.40
2018-02-03T05:59:10.005Z,16.70
2018-02-03T06:02:09.616Z,17.30
2018-02-03T06:04:41.546Z,16.83
2018-02-03T06:07:08.694Z,12.87
2018-02-03T06:09:34.878Z,23.70
2018-02-03T06:12:01.009Z,15.13
2018-02-03T06:14:28.868Z,16.13
2018-02-03T06:16:55.122Z,20.23
2018-02-03T06:19:21.994Z,16.43
2018-02-03T06:21:56.723Z,16.83
2018-02-03T06:24:25.321Z,20.60
2018-02-03T06:26:51.489Z,22.03
2018-02-03T06:29:19.144Z,17.40
2018-02-03T06:31:45.280Z,15.90
2018-02-03T06:34:11.432Z,23.27
2018-02-03T06:36:38.800Z,14.70
2018-02-03T06:39:04.947Z,18.73
2018-02-03T06:41:31.087Z,17.13
2018-02-03T06:43:57.278Z,18.20
2018-02-03T06:46:24.228Z,16.30
2018-02-03T06:48:50.389Z,17.10
2018-02-03T06:51:16.565Z,20.00
2018-02-03T06:53:43.528Z,17.90
2018-02-03T06:56:09.718Z,18.63
2018-02-03T06:58:35.844Z,23.23
2018-02-03T07:01:02.746Z,14.63
2018-02-03T07:03:28.919Z,14.20
2018-02-03T07:05:55.058Z,20.90
2018-02-03T07:08:22.009Z,16.33
2018-02-03T07:10:48.925Z,18.87
2018-02-03T07:13:15.891Z,18.83
2018-02-03T07:15:42.776Z,17.13
2018-02-03T07:18:08.911Z,18.87
2018-02-03T07:20:35.088Z,19.50
2018-02-03T07:23:01.202Z,20.87
2018-02-03T07:25:27.415Z,23.40
2018-02-03T07:27:53.555Z,29.13
2018-02-03T07:30:19.718Z,18.40
2018-02-03T07:32:45.847Z,16.57
2018-02-03T07:35:12.023Z,18.23
2018-02-03T07:37:38.195Z,20.13
2018-02-03T07:40:05.106Z,18.70
2018-02-03T07:42:32.043Z,16.40
2018-02-03T07:44:58.964Z,15.37
2018-02-03T07:47:25.174Z,20.67
2018-02-03T07:49:55.548Z,18.20
2018-02-03T07:52:22.429Z,21.27
2018-02-03T07:54:48.633Z,19.50
2018-02-03T07:57:15.561Z,22.60
2018-02-03T07:59:41.726Z,22.90
2018-02-03T08:02:08.660Z,21.40
2018-02-03T08:04:35.587Z,20.43
2018-02-03T08:07:01.803Z,27.57
2018-02-03T08:09:27.988Z,21.67
2018-02-03T08:11:54.103Z,20.40
2018-02-03T08:14:20.300Z,19.53
2018-02-03T08:16:46.471Z,16.00
2018-02-03T08:19:12.599Z,20.90
2018-02-03T08:21:38.748Z,19.63
2018-02-03T08:24:04.901Z,19.03
2018-02-03T08:26:32.669Z,17.97
2018-02-03T08:28:58.921Z,22.00
2018-02-03T08:31:25.839Z,19.90
2018-02-03T08:33:51.975Z,24.60
2018-02-03T08:36:18.090Z,19.27
2018-02-03T08:38:44.990Z,20.63
2018-02-03T08:41:11.131Z,20.80
2018-02-03T08:43:37.268Z,17.50
2018-02-03T08:46:03.410Z,17.33
2018-02-03T08:48:30.337Z,22.50
2018-02-03T08:50:56.548Z,19.07
2018-02-03T08:53:22.701Z,23.90
2018-02-03T08:55:48.840Z,20.07
2018-02-03T08:58:15.725Z,17.00
2018-02-03T09:00:41.914Z,23.40
2018-02-03T09:03:08.863Z,19.27
2018-02-03T09:05:35.804Z,20.20
2018-02-03T09:08:01.978Z,17.07
2018-02-03T09:10:28.162Z,16.23
2018-02-03T09:12:55.116Z,17.00
2018-02-03T09:15:21.278Z,16.47
2018-02-03T09:17:47.497Z,18.97
2018-02-03T09:20:13.705Z,31.63
2018-02-03T09:22:39.918Z,17.67
2018-02-03T09:25:06.838Z,19.73
2018-02-03T09:27:33.043Z,19.97
2018-02-03T09:29:59.211Z,18.80
2018-02-03T09:32:25.344Z,18.13
2018-02-03T09:34:51.537Z,18.17
2018-02-03T09:37:17.778Z,17.77
2018-02-03T09:39:43.974Z,20.53
2018-02-03T09:42:10.108Z,26.10
2018-02-03T09:44:36.272Z,20.70
2018-02-03T09:47:03.257Z,15.63
2018-02-03T09:49:29.420Z,16.50
2018-02-03T09:51:55.619Z,23.40
2018-02-03T09:54:21.838Z,20.90
2018-02-03T09:56:48.043Z,12.17
2018-02-03T09:59:14.924Z,12.97
2018-02-03T10:01:41.118Z,13.50
2018-02-03T10:04:08.040Z,18.23
2018-02-03T10:06:34.913Z,13.67
2018-02-03T10:09:01.863Z,20.30
2018-02-03T10:11:28.046Z,15.60
2018-02-03T10:13:54.212Z,16.43
2018-02-03T10:16:21.174Z,13.37
2018-02-03T10:18:47.368Z,11.10
2018-02-03T10:21:14.331Z,13.87
2018-02-03T10:23:41.235Z,14.50
2018-02-03T10:26:07.423Z,11.63
2018-02-03T10:28:33.601Z,16.97
2018-02-03T10:30:59.747Z,14.87
2018-02-03T10:33:26.642Z,15.63
2018-02-03T10:35:52.810Z,11.67
2018-02-03T10:38:18.954Z,18.07
2018-02-03T10:40:45.878Z,10.67
2018-02-03T10:43:12.763Z,10.80
2018-02-03T10:45:38.929Z,10.93
2018-02-03T10:48:05.123Z,8.43
2018-02-03T10:50:31.391Z,9.33
2018-02-03T10:52:57.524Z,9.03
2018-02-03T10:55:23.722Z,16.07
2018-02-03T10:57:49.868Z,8.20
2018-02-03T11:00:16.069Z,8.67
2018-02-03T11:02:42.200Z,10.10
2018-02-03T11:05:08.380Z,11.13
2018-02-03T11:07:35.332Z,10.20
2018-02-03T11:10:01.521Z,10.20
2018-02-03T11:12:27.723Z,10.13
2018-02-03T11:14:54.685Z,8.63
2018-02-03T11:17:21.643Z,11.70
2018-02-03T11:19:48.567Z,10.67
2018-02-03T11:22:14.707Z,8.73
2018-02-03T11:24:40.881Z,8.23
2018-02-03T11:27:07.107Z,7.00
2018-02-03T11:29:33.970Z,6.30
2018-02-03T11:32:00.162Z,7.30
2018-02-03T11:34:27.053Z,9.37
2018-02-03T11:36:53.309Z,6.27
2018-02-03T11:39:20.172Z,6.30
2018-02-03T11:41:47.109Z,5.70
2018-02-03T11:44:13.253Z,5.70
2018-02-03T11:46:40.173Z,6.57
2018-02-03T11:49:07.122Z,8.90
2018-02-03T11:51:33.258Z,13.00
2018-02-03T11:53:59.405Z,6.37
2018-02-03T11:56:25.635Z,6.80
2018-02-03T11:58:51.810Z,6.83
2018-02-03T12:01:17.988Z,5.33
2018-02-03T12:03:44.903Z,5.23
2018-02-03T12:06:11.039Z,4.40
2018-02-03T12:08:38.021Z,3.63
2018-02-03T12:11:04.285Z,4.53
2018-02-03T12:13:30.496Z,8.70
2018-02-03T12:15:56.666Z,7.23
2018-02-03T12:18:22.833Z,4.40
2018-02-03T12:20:48.990Z,4.10
2018-02-03T12:23:15.213Z,7.13
2018-02-03T12:25:42.111Z,4.10
2018-02-03T12:28:09.052Z,4.67
2018-02-03T12:30:36.095Z,4.13
2018-02-03T12:33:03.019Z,7.40
2018-02-03T12:35:29.225Z,4.70
2018-02-03T12:37:55.394Z,4.17
2018-02-03T12:40:22.287Z,4.30
2018-02-03T12:42:48.464Z,5.20
2018-02-03T12:45:15.363Z,4.57
2018-02-03T12:47:41.513Z,4.73
2018-02-03T12:50:08.473Z,6.00
2018-02-03T12:52:35.383Z,4.50
2018-02-03T12:55:01.567Z,4.77
2018-02-03T12:57:27.780Z,4.87
2018-02-03T12:59:54.668Z,5.07
2018-02-03T13:02:20.842Z,6.03
2018-02-03T13:04:47.803Z,5.67
2018-02-03T13:07:13.956Z,5.10
2018-02-03T13:09:40.129Z,5.63
2018-02-03T13:12:07.091Z,5.67
2018-02-03T13:14:33.966Z,4.77
2018-02-03T13:17:00.198Z,4.10
2018-02-03T13:19:26.419Z,5.27
2018-02-03T13:21:52.579Z,4.80
2018-02-03T13:24:18.746Z,4.70
2018-02-03T13:26:45.689Z,6.00
2018-02-03T13:29:12.568Z,5.40
2018-02-03T13:31:38.728Z,5.63
2018-02-03T13:34:04.874Z,4.83
2018-02-03T13:36:31.798Z,4.90
2018-02-03T13:38:57.973Z,5.03
2018-02-03T13:41:24.890Z,11.20
2018-02-03T13:43:51.044Z,4.97
2018-02-03T13:46:17.944Z,5.60
2018-02-03T13:48:44.183Z,4.57
2018-02-03T13:51:10.349Z,6.07
2018-02-03T13:53:36.676Z,5.30
2018-02-03T13:56:02.827Z,5.37
2018-02-03T13:58:29.009Z,5.63
2018-02-03T14:00:55.184Z,5.70
2018-02-03T14:03:21.314Z,8.57
2018-02-03T14:05:47.501Z,6.33
2018-02-03T14:08:14.435Z,4.97
2018-02-03T14:10:40.661Z,6.77
2018-02-03T14:13:07.595Z,9.57
2018-02-03T14:15:33.784Z,5.80
2018-02-03T14:17:59.984Z,4.47
2018-02-03T14:20:26.139Z,8.40
2018-02-03T14:22:52.343Z,5.07
2018-02-03T14:25:18.576Z,4.73
2018-02-03T14:27:44.802Z,4.50
2018-02-03T14:30:10.968Z,6.10
2018-02-03T14:32:44.183Z,6.33
2018-02-03T14:35:10.389Z,5.87
2018-02-03T14:37:36.522Z,12.43
2018-02-03T14:40:02.760Z,11.37
2018-02-03T14:42:28.982Z,6.77
2018-02-03T14:44:55.166Z,7.70
2018-02-03T14:47:21.362Z,9.57
2018-02-03T14:49:48.275Z,10.13
2018-02-03T14:52:14.459Z,9.10
2018-02-03T14:54:40.666Z,9.67
2018-02-03T14:57:07.558Z,9.50
2018-02-03T14:59:33.743Z,9.07
2018-02-03T15:01:59.970Z,12.60
2018-02-03T15:04:26.904Z,10.20
2018-02-03T15:06:53.807Z,7.30
2018-02-03T15:09:20.011Z,10.90
2018-02-03T15:11:46.183Z,14.60
2018-02-03T15:14:13.099Z,18.13
2018-02-03T15:16:39.297Z,10.63
2018-02-03T15:19:05.462Z,14.93
2018-02-03T15:21:31.638Z,14.37
2018-02-03T15:23:58.525Z,15.97
2018-02-03T15:26:24.732Z,24.77
2018-02-03T15:28:50.893Z,16.10
2018-02-03T15:31:17.099Z,16.27
2018-02-03T15:33:43.265Z,10.60
2018-02-03T15:36:09.412Z,13.30
2018-02-03T15:38:36.339Z,18.03
2018-02-03T15:41:02.555Z,26.87
2018-02-03T15:43:29.514Z,77.50
2018-02-03T15:45:55.676Z,34.20
2018-02-03T15:48:21.893Z,15.87
2018-02-03T15:50:48.802Z,45.87
2018-02-03T15:53:14.982Z,36.40
2018-02-03T15:55:41.167Z,25.53
2018-02-03T15:58:07.377Z,32.07
2018-02-03T16:00:33.574Z,22.17
2018-02-03T16:02:59.721Z,24.43
2018-02-03T16:05:25.917Z,40.13
2018-02-03T16:07:52.104Z,38.40
2018-02-03T16:10:18.286Z,15.73
2018-02-03T16:12:44.479Z,16.50
2018-02-03T16:15:11.348Z,13.50
2018-02-03T16:17:37.539Z,20.00
2018-02-03T16:20:04.456Z,17.77
2018-02-03T16:22:30.590Z,11.60
2018-02-03T16:24:56.768Z,26.87
2018-02-03T16:27:22.941Z,10.90
2018-02-03T16:29:49.125Z,13.23
2018-02-03T16:32:15.258Z,12.80
2018-02-03T16:34:41.465Z,10.97
2018-02-03T16:37:07.685Z,11.83
2018-02-03T16:39:34.619Z,16.23
2018-02-03T16:42:01.510Z,14.43
2018-02-03T16:44:27.705Z,9.70
2018-02-03T16:46:54.681Z,13.67
2018-02-03T16:49:20.863Z,15.67
2018-02-03T16:51:47.780Z,18.53
2018-02-03T16:54:13.946Z,19.50
2018-02-03T16:56:40.868Z,14.37
2018-02-03T16:59:07.782Z,23.60
2018-02-03T17:01:33.980Z,12.40
2018-02-03T17:04:00.227Z,12.23
2018-02-03T17:06:26.356Z,10.70
2018-02-03T17:08:52.553Z,7.50
2018-02-03T17:11:18.710Z,3.60
2018-02-03T17:13:44.858Z,9.03
2018-02-03T17:16:11.057Z,4.70
2018-02-03T17:18:37.205Z,5.37
2018-02-03T17:21:03.371Z,4.83
2018-02-03T17:23:30.362Z,4.30
2018-02-03T17:25:56.552Z,4.17
2018-02-03T17:28:23.454Z,4.83
2018-02-03T17:30:49.694Z,5.83
2018-02-03T17:33:15.907Z,5.00
2018-02-03T17:35:42.062Z,18.87
2018-02-03T17:38:14.445Z,3.90
2018-02-03T17:40:41.363Z,3.60
2018-02-03T17:43:07.551Z,3.50
2018-02-03T17:45:39.891Z,5.47
2018-02-03T17:48:06.857Z,4.63
2018-02-03T17:50:33.062Z,3.73
2018-02-03T17:52:59.976Z,5.00
2018-02-03T17:55:32.208Z,4.63
2018-02-03T17:57:58.408Z,4.10
2018-02-03T18:00:25.732Z,4.10
2018-02-03T18:02:51.931Z,6.13
2018-02-03T18:05:18.085Z,3.83
2018-02-03T18:07:44.258Z,4.47
2018-02-03T18:10:10.421Z,5.20
2018-02-03T18:12:36.590Z,4.20
2018-02-03T18:15:02.773Z,4.20
2018-02-03T18:17:28.936Z,5.10
2018-02-03T18:19:55.938Z,5.50
2018-02-03T18:22:22.162Z,6.77
2018-02-03T18:24:48.374Z,9.43
2018-02-03T18:27:14.536Z,7.20
2018-02-03T18:29:40.709Z,8.80
2018-02-03T18:32:07.666Z,10.43
2018-02-03T18:34:33.828Z,9.30
2018-02-03T18:36:59.997Z,7.57
2018-02-03T18:39:26.908Z,7.13
2018-02-03T18:41:53.083Z,7.13
2018-02-03T18:44:19.303Z,12.40
2018-02-03T18:46:46.236Z,11.93
2018-02-03T18:49:13.197Z,11.63
2018-02-03T18:51:40.132Z,9.17
2018-02-03T18:54:07.929Z,11.57
2018-02-03T18:56:34.127Z,8.00
2018-02-03T18:59:01.048Z,6.87
2018-02-03T19:01:27.190Z,8.47
2018-02-03T19:03:54.124Z,6.57
2018-02-03T19:06:21.007Z,8.60
2018-02-03T19:08:47.245Z,6.97
2018-02-03T19:11:13.449Z,6.50
2018-02-03T19:13:40.344Z,9.03
2018-02-03T19:16:07.044Z,9.93
2018-02-03T19:18:33.216Z,7.27
2018-02-03T19:20:59.512Z,7.40
2018-02-03T19:23:26.903Z,9.27
2018-02-03T19:25:53.094Z,6.73
2018-02-03T19:28:19.301Z,7.80
2018-02-03T19:30:47.151Z,6.17
2018-02-03T19:33:14.116Z,11.00
2018-02-03T19:35:41.010Z,5.40
2018-02-03T19:38:07.275Z,5.77
2018-02-03T19:40:34.244Z,5.67
2018-02-03T19:43:00.442Z,5.90
2018-02-03T19:45:27.608Z,7.60
2018-02-03T19:47:54.561Z,6.50
2018-02-03T19:50:21.488Z,8.60
2018-02-03T19:52:48.448Z,8.63
2018-02-03T19:55:16.050Z,13.73
2018-02-03T19:57:42.250Z,14.07
2018-02-03T20:00:08.435Z,14.03
2018-02-03T20:02:35.487Z,7.40
2018-02-03T20:05:02.484Z,10.47
2018-02-03T20:07:28.669Z,9.23
2018-02-03T20:09:56.696Z,6.83
2018-02-03T20:12:22.866Z,8.17
2018-02-03T20:14:49.044Z,7.33
2018-02-03T20:17:16.038Z,7.73
2018-02-03T20:19:42.990Z,6.77
2018-02-03T20:22:09.903Z,9.60
2018-02-03T20:24:36.099Z,9.63
2018-02-03T20:27:02.255Z,11.87
2018-02-03T20:29:28.391Z,10.57
2018-02-03T20:31:54.593Z,12.53
2018-02-03T20:34:20.758Z,9.67
2018-02-03T20:36:47.681Z,10.50
2018-02-03T20:39:13.891Z,12.30
2018-02-03T20:41:40.089Z,12.40
2018-02-03T20:44:06.254Z,9.10
2018-02-03T20:46:32.487Z,8.87
2018-02-03T20:48:58.649Z,14.47
2018-02-03T20:51:24.782Z,14.20
2018-02-03T20:53:51.707Z,12.03
2018-02-03T20:56:18.617Z,13.90
2018-02-03T20:58:44.773Z,25.03
2018-02-03T21:01:10.958Z,24.43
2018-02-03T21:03:37.162Z,19.10
2018-02-03T21:06:03.358Z,18.10
2018-02-03T21:08:30.289Z,18.43
2018-02-03T21:10:56.483Z,15.80
2018-02-03T21:13:22.633Z,12.47
2018-02-03T21:15:48.841Z,11.70
2018-02-03T21:18:15.027Z,15.03
2018-02-03T21:20:41.184Z,13.50
2018-02-03T21:23:07.422Z,13.07
2018-02-03T21:25:33.614Z,12.07
2018-02-03T21:28:00.523Z,13.60
2018-02-03T21:30:26.714Z,12.13
2018-02-03T21:32:52.902Z,9.83
2018-02-03T21:35:19.882Z,9.63
2018-02-03T21:37:46.080Z,9.77
2018-02-03T21:40:13.041Z,12.33
2018-02-03T21:42:40.006Z,9.67
2018-02-03T21:45:06.183Z,10.60
2018-02-03T21:47:33.126Z,11.83
2018-02-03T21:49:59.380Z,11.13
2018-02-03T21:52:26.308Z,15.93
2018-02-03T21:54:53.183Z,12.20
2018-02-03T21:57:20.148Z,17.17
2018-02-03T21:59:46.340Z,10.73
2018-02-03T22:02:13.283Z,14.40
2018-02-03T22:04:40.216Z,11.33
2018-02-03T22:07:06.408Z,14.20
2018-02-03T22:09:32.589Z,11.33
2018-02-03T22:11:59.522Z,13.50
2018-02-03T22:14:25.659Z,19.90
2018-02-03T22:16:52.595Z,18.73
2018-02-03T22:19:19.508Z,14.10
2018-02-03T22:21:45.661Z,14.70
2018-02-03T22:24:12.633Z,15.37
2018-02-03T22:26:38.845Z,14.20
2018-02-03T22:29:05.746Z,13.57
2018-02-03T22:31:31.998Z,13.63
2018-02-03T22:33:58.928Z,22.10
2018-02-03T22:36:25.078Z,15.93
2018-02-03T22:38:52.024Z,15.47
2018-02-03T22:41:18.977Z,17.13
2018-02-03T22:43:45.954Z,16.83
2018-02-03T22:46:12.205Z,16.40
2018-02-03T22:48:38.420Z,17.47
2018-02-03T22:51:04.620Z,20.60
2018-02-03T22:53:31.644Z,15.80
2018-02-03T22:55:57.816Z,15.60
2018-02-03T22:58:24.015Z,14.60
2018-02-03T23:00:57.155Z,15.40
2018-02-03T23:03:23.356Z,16.27
2018-02-03T23:05:49.549Z,16.73
2018-02-03T23:08:16.423Z,14.93
2018-02-03T23:10:42.629Z,16.10
2018-02-03T23:13:09.512Z,18.80
2018-02-03T23:15:35.748Z,15.07
2018-02-03T23:18:01.942Z,17.30
2018-02-03T23:20:28.127Z,17.33
2018-02-03T23:22:54.294Z,18.43
2018-02-03T23:25:21.223Z,17.37
2018-02-03T23:27:48.107Z,15.07
2018-02-03T23:30:14.350Z,15.10
2018-02-03T23:32:40.503Z,15.83
2018-02-03T23:35:06.678Z,14.67
2018-02-03T23:37:32.856Z,16.67
2018-02-03T23:39:58.984Z,15.73
2018-02-03T23:42:25.235Z,15.17
2018-02-03T23:44:52.181Z,15.70
2018-02-03T23:47:19.130Z,16.93
2018-02-03T23:49:46.088Z,14.70
2018-02-03T23:52:13.037Z,14.50
2018-02-03T23:54:39.213Z,13.63
2018-02-03T23:57:05.420Z,14.80
2018-02-03T23:59:31.650Z,13.40
